sensor_id;sensor_type;location;lat;lon;timestamp;temperature;humidity
45837;DHT22;31548;51.420;-0.040;2023-11-19T00:02:00;12.50;99.90
45837;DHT22;31548;51.420;-0.040;2023-11-19T00:04:27;12.40;99.90
45837;DHT22;31548;51.420;-0.040;2023-11-19T00:06:55;12.40;99.90
45837;DHT22;31548;51.420;-0.040;2023-11-19T00:09:24;12.40;99.90
45837;DHT22;31548;51.420;-0.040;2023-11-19T00:11:52;12.40;99.90
45837;DHT22;31548;51.420;-0.040;2023-11-19T00:14:21;12.40;99.90
45837;DHT22;31548;51.420;-0.040;2023-11-19T00:16:48;12.30;99.90
45837;DHT22;31548;51.420;-0.040;2023-11-19T00:19:18;12.30;99.90
45837;DHT22;31548;51.420;-0.040;2023-11-19T00:21:45;12.30;99.90
45837;DHT22;31548;51.420;-0.040;2023-11-19T00:24:13;12.30;99.90
45837;DHT22;31548;51.420;-0.040;2023-11-19T00:26:43;12.30;99.90
45837;DHT22;31548;51.420;-0.040;2023-11-19T00:29:11;12.30;99.90
45837;DHT22;31548;51.420;-0.040;2023-11-19T00:31:40;12.30;99.90
45837;DHT22;31548;51.420;-0.040;2023-11-19T00:34:07;12.30;99.90
45837;DHT22;31548;51.420;-0.040;2023-11-19T00:36:35;12.30;99.90
45837;DHT22;31548;51.420;-0.040;2023-11-19T00:39:02;12.20;99.90
45837;DHT22;31548;51.420;-0.040;2023-11-19T00:41:30;12.20;99.90
45837;DHT22;31548;51.420;-0.040;2023-11-19T00:43:57;12.20;99.90
45837;DHT22;31548;51.420;-0.040;2023-11-19T00:46:24;12.20;99.90
45837;DHT22;31548;51.420;-0.040;2023-11-19T00:48:52;12.20;99.90
45837;DHT22;31548;51.420;-0.040;2023-11-19T00:51:20;12.10;99.90
45837;DHT22;31548;51.420;-0.040;2023-11-19T00:53:47;12.10;99.90
45837;DHT22;31548;51.420;-0.040;2023-11-19T00:56:14;12.10;99.90
45837;DHT22;31548;51.420;-0.040;2023-11-19T00:58:43;12.10;99.90
45837;DHT22;31548;51.420;-0.040;2023-11-19T01:01:11;12.00;99.90
45837;DHT22;31548;51.420;-0.040;2023-11-19T01:03:39;12.00;99.90
45837;DHT22;31548;51.420;-0.040;2023-11-19T01:06:07;12.00;99.90
45837;DHT22;31548;51.420;-0.040;2023-11-19T01:08:36;12.00;99.90
45837;DHT22;31548;51.420;-0.040;2023-11-19T01:11:04;12.00;99.90
45837;DHT22;31548;51.420;-0.040;2023-11-19T01:13:31;12.00;99.90
45837;DHT22;31548;51.420;-0.040;2023-11-19T01:15:59;12.00;99.90
45837;DHT22;31548;51.420;-0.040;2023-11-19T01:18:26;11.90;99.90
45837;DHT22;31548;51.420;-0.040;2023-11-19T01:20:53;11.90;99.90
45837;DHT22;31548;51.420;-0.040;2023-11-19T01:23:21;11.90;99.90
45837;DHT22;31548;51.420;-0.040;2023-11-19T01:25:48;11.90;99.90
45837;DHT22;31548;51.420;-0.040;2023-11-19T01:28:16;11.90;99.90
45837;DHT22;31548;51.420;-0.040;2023-11-19T01:30:43;12.00;99.90
45837;DHT22;31548;51.420;-0.040;2023-11-19T01:33:10;12.00;99.90
45837;DHT22;31548;51.420;-0.040;2023-11-19T01:35:38;11.90;99.90
45837;DHT22;31548;51.420;-0.040;2023-11-19T01:38:05;11.90;99.90
45837;DHT22;31548;51.420;-0.040;2023-11-19T01:40:33;11.90;99.90
45837;DHT22;31548;51.420;-0.040;2023-11-19T01:43:00;11.90;99.90
45837;DHT22;31548;51.420;-0.040;2023-11-19T01:45:28;11.90;99.90
45837;DHT22;31548;51.420;-0.040;2023-11-19T01:48:02;11.90;99.90
45837;DHT22;31548;51.420;-0.040;2023-11-19T01:50:33;12.00;99.90
45837;DHT22;31548;51.420;-0.040;2023-11-19T01:53:01;11.90;99.90
45837;DHT22;31548;51.420;-0.040;2023-11-19T01:55:28;11.90;99.90
45837;DHT22;31548;51.420;-0.040;2023-11-19T01:57:59;11.90;99.90
45837;DHT22;31548;51.420;-0.040;2023-11-19T02:00:28;11.90;99.90
45837;DHT22;31548;51.420;-0.040;2023-11-19T02:02:56;11.90;99.90
45837;DHT22;31548;51.420;-0.040;2023-11-19T02:05:23;11.90;99.90
45837;DHT22;31548;51.420;-0.040;2023-11-19T02:07:52;11.90;99.90
45837;DHT22;31548;51.420;-0.040;2023-11-19T02:10:20;11.90;99.90
45837;DHT22;31548;51.420;-0.040;2023-11-19T02:12:47;11.90;99.90
45837;DHT22;31548;51.420;-0.040;2023-11-19T02:15:15;11.80;99.90
45837;DHT22;31548;51.420;-0.040;2023-11-19T02:17:46;11.80;99.90
45837;DHT22;31548;51.420;-0.040;2023-11-19T02:20:13;11.90;99.90
45837;DHT22;31548;51.420;-0.040;2023-11-19T02:22:43;11.80;99.90
45837;DHT22;31548;51.420;-0.040;2023-11-19T02:25:17;11.80;99.90
45837;DHT22;31548;51.420;-0.040;2023-11-19T02:27:53;11.80;99.90
45837;DHT22;31548;51.420;-0.040;2023-11-19T02:30:24;11.80;99.90
45837;DHT22;31548;51.420;-0.040;2023-11-19T02:32:56;11.80;99.90
45837;DHT22;31548;51.420;-0.040;2023-11-19T02:35:29;11.80;99.90
45837;DHT22;31548;51.420;-0.040;2023-11-19T02:37:59;11.80;99.90
45837;DHT22;31548;51.420;-0.040;2023-11-19T02:40:27;11.80;99.90
45837;DHT22;31548;51.420;-0.040;2023-11-19T02:42:55;11.80;99.90
45837;DHT22;31548;51.420;-0.040;2023-11-19T02:45:24;11.70;99.90
45837;DHT22;31548;51.420;-0.040;2023-11-19T02:47:53;11.80;99.90
45837;DHT22;31548;51.420;-0.040;2023-11-19T02:50:22;11.80;99.90
45837;DHT22;31548;51.420;-0.040;2023-11-19T02:52:55;11.80;99.90
45837;DHT22;31548;51.420;-0.040;2023-11-19T02:55:24;11.80;99.90
45837;DHT22;31548;51.420;-0.040;2023-11-19T02:57:52;11.80;99.90
45837;DHT22;31548;51.420;-0.040;2023-11-19T03:00:22;11.80;99.90
45837;DHT22;31548;51.420;-0.040;2023-11-19T03:02:59;11.80;99.90
45837;DHT22;31548;51.420;-0.040;2023-11-19T03:05:32;11.80;99.90
45837;DHT22;31548;51.420;-0.040;2023-11-19T03:08:00;11.80;99.90
45837;DHT22;31548;51.420;-0.040;2023-11-19T03:10:28;11.80;99.90
45837;DHT22;31548;51.420;-0.040;2023-11-19T03:12:56;11.80;99.90
45837;DHT22;31548;51.420;-0.040;2023-11-19T03:15:24;11.80;99.90
45837;DHT22;31548;51.420;-0.040;2023-11-19T03:17:52;11.90;99.90
45837;DHT22;31548;51.420;-0.040;2023-11-19T03:20:19;11.90;99.90
45837;DHT22;31548;51.420;-0.040;2023-11-19T03:22:48;11.90;99.90
45837;DHT22;31548;51.420;-0.040;2023-11-19T03:25:15;12.00;99.90
45837;DHT22;31548;51.420;-0.040;2023-11-19T03:27:43;11.90;99.90
45837;DHT22;31548;51.420;-0.040;2023-11-19T03:30:11;12.00;99.90
45837;DHT22;31548;51.420;-0.040;2023-11-19T03:32:39;11.90;99.90
45837;DHT22;31548;51.420;-0.040;2023-11-19T03:35:06;11.90;99.90
45837;DHT22;31548;51.420;-0.040;2023-11-19T03:37:38;11.90;99.90
45837;DHT22;31548;51.420;-0.040;2023-11-19T03:40:07;11.90;99.90
45837;DHT22;31548;51.420;-0.040;2023-11-19T03:42:34;12.00;99.90
45837;DHT22;31548;51.420;-0.040;2023-11-19T03:45:02;11.90;99.90
45837;DHT22;31548;51.420;-0.040;2023-11-19T03:47:32;11.90;99.90
45837;DHT22;31548;51.420;-0.040;2023-11-19T03:50:00;11.90;99.90
45837;DHT22;31548;51.420;-0.040;2023-11-19T03:52:28;11.90;99.90
45837;DHT22;31548;51.420;-0.040;2023-11-19T03:54:56;11.90;99.90
45837;DHT22;31548;51.420;-0.040;2023-11-19T03:57:28;11.90;99.90
45837;DHT22;31548;51.420;-0.040;2023-11-19T03:59:56;11.90;99.90
45837;DHT22;31548;51.420;-0.040;2023-11-19T04:02:25;11.90;99.90
45837;DHT22;31548;51.420;-0.040;2023-11-19T04:04:55;11.90;99.90
45837;DHT22;31548;51.420;-0.040;2023-11-19T04:07:22;11.90;99.90
45837;DHT22;31548;51.420;-0.040;2023-11-19T04:09:50;11.90;99.90
45837;DHT22;31548;51.420;-0.040;2023-11-19T04:12:18;11.80;99.90
45837;DHT22;31548;51.420;-0.040;2023-11-19T04:14:45;11.80;99.90
45837;DHT22;31548;51.420;-0.040;2023-11-19T04:17:13;11.80;99.90
45837;DHT22;31548;51.420;-0.040;2023-11-19T04:19:40;11.80;99.90
45837;DHT22;31548;51.420;-0.040;2023-11-19T04:22:08;11.80;99.90
45837;DHT22;31548;51.420;-0.040;2023-11-19T04:24:36;11.80;99.90
45837;DHT22;31548;51.420;-0.040;2023-11-19T04:27:05;11.80;99.90
45837;DHT22;31548;51.420;-0.040;2023-11-19T04:29:33;11.90;99.90
45837;DHT22;31548;51.420;-0.040;2023-11-19T04:32:01;11.80;99.90
45837;DHT22;31548;51.420;-0.040;2023-11-19T04:34:28;11.80;99.90
45837;DHT22;31548;51.420;-0.040;2023-11-19T04:36:56;11.80;99.90
45837;DHT22;31548;51.420;-0.040;2023-11-19T04:39:23;11.80;99.90
45837;DHT22;31548;51.420;-0.040;2023-11-19T04:41:51;11.80;99.90
45837;DHT22;31548;51.420;-0.040;2023-11-19T04:44:21;11.90;99.90
45837;DHT22;31548;51.420;-0.040;2023-11-19T04:46:49;11.90;99.90
45837;DHT22;31548;51.420;-0.040;2023-11-19T04:49:16;11.90;99.90
45837;DHT22;31548;51.420;-0.040;2023-11-19T04:51:45;11.90;99.90
45837;DHT22;31548;51.420;-0.040;2023-11-19T04:54:16;11.90;99.90
45837;DHT22;31548;51.420;-0.040;2023-11-19T04:56:47;11.90;99.90
45837;DHT22;31548;51.420;-0.040;2023-11-19T04:59:14;11.90;99.90
45837;DHT22;31548;51.420;-0.040;2023-11-19T05:01:47;11.90;99.90
45837;DHT22;31548;51.420;-0.040;2023-11-19T05:04:15;11.80;99.90
45837;DHT22;31548;51.420;-0.040;2023-11-19T05:06:42;11.80;99.90
45837;DHT22;31548;51.420;-0.040;2023-11-19T05:09:10;11.90;99.90
45837;DHT22;31548;51.420;-0.040;2023-11-19T05:11:40;11.90;99.90
45837;DHT22;31548;51.420;-0.040;2023-11-19T05:14:10;11.90;99.90
45837;DHT22;31548;51.420;-0.040;2023-11-19T05:16:39;11.90;99.90
45837;DHT22;31548;51.420;-0.040;2023-11-19T05:19:07;11.90;99.90
45837;DHT22;31548;51.420;-0.040;2023-11-19T05:21:36;11.80;99.90
45837;DHT22;31548;51.420;-0.040;2023-11-19T05:24:03;11.80;99.90
45837;DHT22;31548;51.420;-0.040;2023-11-19T05:26:31;11.80;99.90
45837;DHT22;31548;51.420;-0.040;2023-11-19T05:28:59;11.70;99.90
45837;DHT22;31548;51.420;-0.040;2023-11-19T05:31:26;11.80;99.90
45837;DHT22;31548;51.420;-0.040;2023-11-19T05:33:53;11.90;99.90
45837;DHT22;31548;51.420;-0.040;2023-11-19T05:36:21;11.80;99.90
45837;DHT22;31548;51.420;-0.040;2023-11-19T05:38:48;11.80;99.90
45837;DHT22;31548;51.420;-0.040;2023-11-19T05:41:15;11.80;99.90
45837;DHT22;31548;51.420;-0.040;2023-11-19T05:43:43;11.80;99.90
45837;DHT22;31548;51.420;-0.040;2023-11-19T05:46:10;11.90;99.90
45837;DHT22;31548;51.420;-0.040;2023-11-19T05:48:41;11.90;99.90
45837;DHT22;31548;51.420;-0.040;2023-11-19T05:51:08;12.00;99.90
45837;DHT22;31548;51.420;-0.040;2023-11-19T05:53:35;12.00;99.90
45837;DHT22;31548;51.420;-0.040;2023-11-19T05:56:02;12.00;99.90
45837;DHT22;31548;51.420;-0.040;2023-11-19T05:58:31;12.10;99.90
45837;DHT22;31548;51.420;-0.040;2023-11-19T06:00:59;12.00;99.90
45837;DHT22;31548;51.420;-0.040;2023-11-19T06:03:28;12.10;99.90
45837;DHT22;31548;51.420;-0.040;2023-11-19T06:05:55;12.10;99.90
45837;DHT22;31548;51.420;-0.040;2023-11-19T06:08:23;12.10;99.90
45837;DHT22;31548;51.420;-0.040;2023-11-19T06:10:50;12.10;99.90
45837;DHT22;31548;51.420;-0.040;2023-11-19T06:13:18;12.10;99.90
45837;DHT22;31548;51.420;-0.040;2023-11-19T06:15:50;12.10;99.90
45837;DHT22;31548;51.420;-0.040;2023-11-19T06:18:18;12.10;99.90
45837;DHT22;31548;51.420;-0.040;2023-11-19T06:20:47;12.10;99.90
45837;DHT22;31548;51.420;-0.040;2023-11-19T06:23:15;12.10;99.90
45837;DHT22;31548;51.420;-0.040;2023-11-19T06:25:42;12.10;99.90
45837;DHT22;31548;51.420;-0.040;2023-11-19T06:28:09;12.00;99.90
45837;DHT22;31548;51.420;-0.040;2023-11-19T06:30:37;12.10;99.90
45837;DHT22;31548;51.420;-0.040;2023-11-19T06:33:04;12.00;99.90
45837;DHT22;31548;51.420;-0.040;2023-11-19T06:35:32;12.00;99.90
45837;DHT22;31548;51.420;-0.040;2023-11-19T06:38:04;12.00;99.90
45837;DHT22;31548;51.420;-0.040;2023-11-19T06:40:34;12.00;99.90
45837;DHT22;31548;51.420;-0.040;2023-11-19T06:43:05;12.00;99.90
45837;DHT22;31548;51.420;-0.040;2023-11-19T06:45:35;11.90;99.90
45837;DHT22;31548;51.420;-0.040;2023-11-19T06:48:05;11.90;99.90
45837;DHT22;31548;51.420;-0.040;2023-11-19T06:50:33;11.90;99.90
45837;DHT22;31548;51.420;-0.040;2023-11-19T06:53:01;11.90;99.90
45837;DHT22;31548;51.420;-0.040;2023-11-19T06:55:28;11.90;99.90
45837;DHT22;31548;51.420;-0.040;2023-11-19T06:57:55;11.90;99.90
45837;DHT22;31548;51.420;-0.040;2023-11-19T07:00:23;11.90;99.90
45837;DHT22;31548;51.420;-0.040;2023-11-19T07:02:50;11.90;99.90
45837;DHT22;31548;51.420;-0.040;2023-11-19T07:05:18;11.80;99.90
45837;DHT22;31548;51.420;-0.040;2023-11-19T07:07:46;11.80;99.90
45837;DHT22;31548;51.420;-0.040;2023-11-19T07:10:14;11.80;99.90
45837;DHT22;31548;51.420;-0.040;2023-11-19T07:12:42;11.80;99.90
45837;DHT22;31548;51.420;-0.040;2023-11-19T07:15:12;11.80;99.90
45837;DHT22;31548;51.420;-0.040;2023-11-19T07:17:39;11.70;99.90
45837;DHT22;31548;51.420;-0.040;2023-11-19T07:20:11;11.70;99.90
45837;DHT22;31548;51.420;-0.040;2023-11-19T07:22:43;11.70;99.90
45837;DHT22;31548;51.420;-0.040;2023-11-19T07:25:13;11.70;99.90
45837;DHT22;31548;51.420;-0.040;2023-11-19T07:27:40;11.70;99.90
45837;DHT22;31548;51.420;-0.040;2023-11-19T07:30:08;11.70;99.90
45837;DHT22;31548;51.420;-0.040;2023-11-19T07:32:35;11.70;99.90
45837;DHT22;31548;51.420;-0.040;2023-11-19T07:35:03;11.70;99.90
45837;DHT22;31548;51.420;-0.040;2023-11-19T07:37:31;11.80;99.90
45837;DHT22;31548;51.420;-0.040;2023-11-19T07:39:58;11.80;99.90
45837;DHT22;31548;51.420;-0.040;2023-11-19T07:42:26;11.90;99.90
45837;DHT22;31548;51.420;-0.040;2023-11-19T07:44:53;11.90;99.90
45837;DHT22;31548;51.420;-0.040;2023-11-19T07:47:22;11.90;99.90
45837;DHT22;31548;51.420;-0.040;2023-11-19T07:49:51;11.80;99.90
45837;DHT22;31548;51.420;-0.040;2023-11-19T07:52:18;11.90;99.90
45837;DHT22;31548;51.420;-0.040;2023-11-19T07:54:48;11.90;99.90
45837;DHT22;31548;51.420;-0.040;2023-11-19T07:57:16;11.90;99.90
45837;DHT22;31548;51.420;-0.040;2023-11-19T07:59:43;11.90;99.90
45837;DHT22;31548;51.420;-0.040;2023-11-19T08:02:10;11.90;99.90
45837;DHT22;31548;51.420;-0.040;2023-11-19T08:04:38;11.90;99.90
45837;DHT22;31548;51.420;-0.040;2023-11-19T08:07:12;11.90;99.90
45837;DHT22;31548;51.420;-0.040;2023-11-19T08:09:39;11.90;99.90
45837;DHT22;31548;51.420;-0.040;2023-11-19T08:12:06;12.00;99.90
45837;DHT22;31548;51.420;-0.040;2023-11-19T08:14:35;11.90;99.90
45837;DHT22;31548;51.420;-0.040;2023-11-19T08:17:03;12.00;99.90
45837;DHT22;31548;51.420;-0.040;2023-11-19T08:19:30;12.10;99.90
45837;DHT22;31548;51.420;-0.040;2023-11-19T08:21:58;12.10;99.90
45837;DHT22;31548;51.420;-0.040;2023-11-19T08:24:26;12.10;99.90
45837;DHT22;31548;51.420;-0.040;2023-11-19T08:26:53;12.20;99.90
45837;DHT22;31548;51.420;-0.040;2023-11-19T08:29:24;12.20;99.90
45837;DHT22;31548;51.420;-0.040;2023-11-19T08:31:51;12.30;99.90
45837;DHT22;31548;51.420;-0.040;2023-11-19T08:34:19;12.30;99.90
45837;DHT22;31548;51.420;-0.040;2023-11-19T08:36:50;12.30;99.90
45837;DHT22;31548;51.420;-0.040;2023-11-19T08:39:18;12.30;99.90
45837;DHT22;31548;51.420;-0.040;2023-11-19T08:41:45;12.30;99.90
45837;DHT22;31548;51.420;-0.040;2023-11-19T08:44:13;12.30;99.90
45837;DHT22;31548;51.420;-0.040;2023-11-19T08:46:47;12.30;99.90
45837;DHT22;31548;51.420;-0.040;2023-11-19T08:49:15;12.30;99.90
45837;DHT22;31548;51.420;-0.040;2023-11-19T08:51:42;12.30;99.90
45837;DHT22;31548;51.420;-0.040;2023-11-19T08:54:10;12.30;99.90
45837;DHT22;31548;51.420;-0.040;2023-11-19T08:56:38;12.30;99.90
45837;DHT22;31548;51.420;-0.040;2023-11-19T08:59:06;12.30;99.90
45837;DHT22;31548;51.420;-0.040;2023-11-19T09:01:34;12.40;99.90
45837;DHT22;31548;51.420;-0.040;2023-11-19T09:04:01;12.50;99.90
45837;DHT22;31548;51.420;-0.040;2023-11-19T09:06:29;12.50;99.90
45837;DHT22;31548;51.420;-0.040;2023-11-19T09:08:56;12.60;99.90
45837;DHT22;31548;51.420;-0.040;2023-11-19T09:11:28;12.60;99.90
45837;DHT22;31548;51.420;-0.040;2023-11-19T09:13:55;12.70;99.90
45837;DHT22;31548;51.420;-0.040;2023-11-19T09:16:22;12.70;99.90
45837;DHT22;31548;51.420;-0.040;2023-11-19T09:18:50;12.80;99.90
45837;DHT22;31548;51.420;-0.040;2023-11-19T09:21:17;12.80;99.90
45837;DHT22;31548;51.420;-0.040;2023-11-19T09:23:44;12.80;99.90
45837;DHT22;31548;51.420;-0.040;2023-11-19T09:26:14;12.90;99.90
45837;DHT22;31548;51.420;-0.040;2023-11-19T09:28:41;12.80;99.90
45837;DHT22;31548;51.420;-0.040;2023-11-19T09:31:18;12.90;99.90
45837;DHT22;31548;51.420;-0.040;2023-11-19T09:33:45;12.90;99.90
45837;DHT22;31548;51.420;-0.040;2023-11-19T09:36:13;13.10;99.90
45837;DHT22;31548;51.420;-0.040;2023-11-19T09:38:44;13.20;99.90
45837;DHT22;31548;51.420;-0.040;2023-11-19T09:41:11;13.30;99.90
45837;DHT22;31548;51.420;-0.040;2023-11-19T09:43:40;13.30;99.90
45837;DHT22;31548;51.420;-0.040;2023-11-19T09:46:13;13.30;99.90
45837;DHT22;31548;51.420;-0.040;2023-11-19T09:48:43;13.30;99.90
45837;DHT22;31548;51.420;-0.040;2023-11-19T09:51:11;13.30;99.90
45837;DHT22;31548;51.420;-0.040;2023-11-19T09:53:39;13.40;99.90
45837;DHT22;31548;51.420;-0.040;2023-11-19T09:56:07;13.40;99.90
45837;DHT22;31548;51.420;-0.040;2023-11-19T09:58:40;13.40;99.90
45837;DHT22;31548;51.420;-0.040;2023-11-19T10:01:08;13.40;99.90
45837;DHT22;31548;51.420;-0.040;2023-11-19T10:03:42;13.50;99.90
45837;DHT22;31548;51.420;-0.040;2023-11-19T10:06:11;13.50;99.90
45837;DHT22;31548;51.420;-0.040;2023-11-19T10:08:39;13.40;99.90
45837;DHT22;31548;51.420;-0.040;2023-11-19T10:11:07;13.40;99.90
45837;DHT22;31548;51.420;-0.040;2023-11-19T10:13:36;13.40;99.90
45837;DHT22;31548;51.420;-0.040;2023-11-19T10:16:12;13.30;99.90
45837;DHT22;31548;51.420;-0.040;2023-11-19T10:18:48;13.30;99.90
45837;DHT22;31548;51.420;-0.040;2023-11-19T10:21:18;13.40;99.90
45837;DHT22;31548;51.420;-0.040;2023-11-19T10:23:49;13.40;99.90
45837;DHT22;31548;51.420;-0.040;2023-11-19T10:26:19;13.40;99.90
45837;DHT22;31548;51.420;-0.040;2023-11-19T10:28:47;13.50;99.90
45837;DHT22;31548;51.420;-0.040;2023-11-19T10:31:16;13.40;99.90
45837;DHT22;31548;51.420;-0.040;2023-11-19T10:33:44;13.50;99.90
45837;DHT22;31548;51.420;-0.040;2023-11-19T10:36:13;13.60;99.90
45837;DHT22;31548;51.420;-0.040;2023-11-19T10:38:54;13.60;99.90
45837;DHT22;31548;51.420;-0.040;2023-11-19T10:43:55;13.70;99.90
45837;DHT22;31548;51.420;-0.040;2023-11-19T10:46:23;13.80;99.90
45837;DHT22;31548;51.420;-0.040;2023-11-19T10:49:02;13.90;99.90
45837;DHT22;31548;51.420;-0.040;2023-11-19T10:51:31;14.00;99.90
45837;DHT22;31548;51.420;-0.040;2023-11-19T10:54:05;14.10;99.90
45837;DHT22;31548;51.420;-0.040;2023-11-19T10:56:33;14.20;99.90
45837;DHT22;31548;51.420;-0.040;2023-11-19T10:59:02;14.20;99.90
45837;DHT22;31548;51.420;-0.040;2023-11-19T11:01:52;14.20;99.90
45837;DHT22;31548;51.420;-0.040;2023-11-19T11:04:25;14.30;99.90
45837;DHT22;31548;51.420;-0.040;2023-11-19T11:06:58;14.30;99.90
45837;DHT22;31548;51.420;-0.040;2023-11-19T11:09:30;14.40;99.90
45837;DHT22;31548;51.420;-0.040;2023-11-19T11:11:59;14.40;99.90
45837;DHT22;31548;51.420;-0.040;2023-11-19T11:14:27;14.40;99.90
45837;DHT22;31548;51.420;-0.040;2023-11-19T11:16:56;14.40;99.90
45837;DHT22;31548;51.420;-0.040;2023-11-19T11:19:25;14.40;99.90
45837;DHT22;31548;51.420;-0.040;2023-11-19T11:21:54;14.30;99.90
45837;DHT22;31548;51.420;-0.040;2023-11-19T11:24:32;14.30;99.90
45837;DHT22;31548;51.420;-0.040;2023-11-19T11:30:01;14.20;99.90
45837;DHT22;31548;51.420;-0.040;2023-11-19T11:35:14;14.20;99.90
45837;DHT22;31548;51.420;-0.040;2023-11-19T11:37:55;14.10;99.90
45837;DHT22;31548;51.420;-0.040;2023-11-19T11:40:27;14.10;99.90
45837;DHT22;31548;51.420;-0.040;2023-11-19T11:42:55;14.10;99.90
45837;DHT22;31548;51.420;-0.040;2023-11-19T11:45:39;14.10;99.90
45837;DHT22;31548;51.420;-0.040;2023-11-19T11:50:49;14.10;99.90
45837;DHT22;31548;51.420;-0.040;2023-11-19T11:53:18;14.10;99.90
45837;DHT22;31548;51.420;-0.040;2023-11-19T11:58:20;14.20;99.90
45837;DHT22;31548;51.420;-0.040;2023-11-19T12:00:48;14.20;99.90
45837;DHT22;31548;51.420;-0.040;2023-11-19T12:03:20;14.20;99.90
45837;DHT22;31548;51.420;-0.040;2023-11-19T12:05:52;14.20;99.90
45837;DHT22;31548;51.420;-0.040;2023-11-19T12:08:25;14.20;99.90
45837;DHT22;31548;51.420;-0.040;2023-11-19T12:10:54;14.20;99.90
45837;DHT22;31548;51.420;-0.040;2023-11-19T12:13:42;14.20;99.90
45837;DHT22;31548;51.420;-0.040;2023-11-19T12:16:10;14.20;99.90
45837;DHT22;31548;51.420;-0.040;2023-11-19T12:18:39;14.20;99.90
45837;DHT22;31548;51.420;-0.040;2023-11-19T12:21:07;14.30;99.90
45837;DHT22;31548;51.420;-0.040;2023-11-19T12:23:45;14.30;99.90
45837;DHT22;31548;51.420;-0.040;2023-11-19T12:26:30;14.40;99.90
45837;DHT22;31548;51.420;-0.040;2023-11-19T12:28:59;14.30;99.90
45837;DHT22;31548;51.420;-0.040;2023-11-19T12:31:27;14.30;99.90
45837;DHT22;31548;51.420;-0.040;2023-11-19T12:33:55;14.30;99.90
45837;DHT22;31548;51.420;-0.040;2023-11-19T12:36:22;14.30;99.90
45837;DHT22;31548;51.420;-0.040;2023-11-19T12:38:50;14.40;99.90
45837;DHT22;31548;51.420;-0.040;2023-11-19T12:41:18;14.30;99.90
45837;DHT22;31548;51.420;-0.040;2023-11-19T12:43:49;14.30;99.90
45837;DHT22;31548;51.420;-0.040;2023-11-19T12:48:49;14.20;99.90
45837;DHT22;31548;51.420;-0.040;2023-11-19T12:51:17;14.20;99.90
45837;DHT22;31548;51.420;-0.040;2023-11-19T12:53:52;14.20;99.90
45837;DHT22;31548;51.420;-0.040;2023-11-19T12:56:22;14.20;99.90
45837;DHT22;31548;51.420;-0.040;2023-11-19T12:58:50;14.30;99.90
45837;DHT22;31548;51.420;-0.040;2023-11-19T13:01:18;14.30;99.90
45837;DHT22;31548;51.420;-0.040;2023-11-19T13:03:47;14.30;99.90
45837;DHT22;31548;51.420;-0.040;2023-11-19T13:06:16;14.40;99.90
45837;DHT22;31548;51.420;-0.040;2023-11-19T13:08:48;14.40;99.90
45837;DHT22;31548;51.420;-0.040;2023-11-19T13:11:34;14.40;99.90
45837;DHT22;31548;51.420;-0.040;2023-11-19T13:14:03;14.40;99.90
45837;DHT22;31548;51.420;-0.040;2023-11-19T13:16:32;14.40;99.90
45837;DHT22;31548;51.420;-0.040;2023-11-19T13:19:00;14.40;99.90
45837;DHT22;31548;51.420;-0.040;2023-11-19T13:21:28;14.40;99.90
45837;DHT22;31548;51.420;-0.040;2023-11-19T13:23:57;14.40;99.90
45837;DHT22;31548;51.420;-0.040;2023-11-19T13:26:24;14.40;99.90
45837;DHT22;31548;51.420;-0.040;2023-11-19T13:28:51;14.40;99.90
45837;DHT22;31548;51.420;-0.040;2023-11-19T13:31:19;14.30;99.90
45837;DHT22;31548;51.420;-0.040;2023-11-19T13:33:46;14.30;99.90
45837;DHT22;31548;51.420;-0.040;2023-11-19T13:36:14;14.30;99.90
45837;DHT22;31548;51.420;-0.040;2023-11-19T13:38:43;14.30;99.90
45837;DHT22;31548;51.420;-0.040;2023-11-19T13:41:14;14.30;99.90
45837;DHT22;31548;51.420;-0.040;2023-11-19T13:43:42;14.30;99.90
45837;DHT22;31548;51.420;-0.040;2023-11-19T13:46:09;14.30;99.90
45837;DHT22;31548;51.420;-0.040;2023-11-19T13:48:38;14.30;99.90
45837;DHT22;31548;51.420;-0.040;2023-11-19T13:51:05;14.30;99.90
45837;DHT22;31548;51.420;-0.040;2023-11-19T13:53:33;14.40;99.90
45837;DHT22;31548;51.420;-0.040;2023-11-19T13:56:03;14.30;99.90
45837;DHT22;31548;51.420;-0.040;2023-11-19T13:58:31;14.20;99.90
45837;DHT22;31548;51.420;-0.040;2023-11-19T14:00:58;14.20;99.90
45837;DHT22;31548;51.420;-0.040;2023-11-19T14:03:26;14.20;99.90
45837;DHT22;31548;51.420;-0.040;2023-11-19T14:05:53;14.20;99.90
45837;DHT22;31548;51.420;-0.040;2023-11-19T14:08:22;14.20;99.90
45837;DHT22;31548;51.420;-0.040;2023-11-19T14:10:52;14.20;99.90
45837;DHT22;31548;51.420;-0.040;2023-11-19T14:13:23;14.20;99.90
45837;DHT22;31548;51.420;-0.040;2023-11-19T14:15:51;14.30;99.90
45837;DHT22;31548;51.420;-0.040;2023-11-19T14:18:19;14.30;99.90
45837;DHT22;31548;51.420;-0.040;2023-11-19T14:20:46;14.40;99.90
45837;DHT22;31548;51.420;-0.040;2023-11-19T14:23:13;14.40;99.90
45837;DHT22;31548;51.420;-0.040;2023-11-19T14:25:41;14.30;99.90
45837;DHT22;31548;51.420;-0.040;2023-11-19T14:28:08;14.40;99.90
45837;DHT22;31548;51.420;-0.040;2023-11-19T14:30:36;14.30;99.90
45837;DHT22;31548;51.420;-0.040;2023-11-19T14:33:03;14.30;99.90
45837;DHT22;31548;51.420;-0.040;2023-11-19T14:35:32;14.30;99.90
45837;DHT22;31548;51.420;-0.040;2023-11-19T14:38:01;14.20;99.90
45837;DHT22;31548;51.420;-0.040;2023-11-19T14:40:32;14.30;99.90
45837;DHT22;31548;51.420;-0.040;2023-11-19T14:43:02;14.20;99.90
45837;DHT22;31548;51.420;-0.040;2023-11-19T14:45:30;14.20;99.90
45837;DHT22;31548;51.420;-0.040;2023-11-19T14:48:08;14.20;99.90
45837;DHT22;31548;51.420;-0.040;2023-11-19T14:50:35;14.20;99.90
45837;DHT22;31548;51.420;-0.040;2023-11-19T14:53:02;14.20;99.90
45837;DHT22;31548;51.420;-0.040;2023-11-19T14:55:30;14.10;99.90
45837;DHT22;31548;51.420;-0.040;2023-11-19T14:57:58;14.10;99.90
45837;DHT22;31548;51.420;-0.040;2023-11-19T15:00:36;14.10;99.90
45837;DHT22;31548;51.420;-0.040;2023-11-19T15:03:03;14.10;99.90
45837;DHT22;31548;51.420;-0.040;2023-11-19T15:05:31;14.10;99.90
45837;DHT22;31548;51.420;-0.040;2023-11-19T15:07:58;14.10;99.90
45837;DHT22;31548;51.420;-0.040;2023-11-19T15:10:25;14.10;99.90
45837;DHT22;31548;51.420;-0.040;2023-11-19T15:12:53;14.10;99.90
45837;DHT22;31548;51.420;-0.040;2023-11-19T15:15:21;14.10;99.90
45837;DHT22;31548;51.420;-0.040;2023-11-19T15:17:52;14.10;99.90
45837;DHT22;31548;51.420;-0.040;2023-11-19T15:20:19;14.00;99.90
45837;DHT22;31548;51.420;-0.040;2023-11-19T15:22:47;14.00;99.90
45837;DHT22;31548;51.420;-0.040;2023-11-19T15:25:14;14.00;99.90
45837;DHT22;31548;51.420;-0.040;2023-11-19T15:27:41;14.00;99.90
45837;DHT22;31548;51.420;-0.040;2023-11-19T15:30:09;13.90;99.90
45837;DHT22;31548;51.420;-0.040;2023-11-19T15:32:37;13.90;99.90
45837;DHT22;31548;51.420;-0.040;2023-11-19T15:35:07;13.90;99.90
45837;DHT22;31548;51.420;-0.040;2023-11-19T15:37:35;13.90;99.90
45837;DHT22;31548;51.420;-0.040;2023-11-19T15:40:03;13.80;99.90
45837;DHT22;31548;51.420;-0.040;2023-11-19T15:42:32;13.90;99.90